sensor_id;sensor_type;location;lat;lon;timestamp;P1;durP1;ratioP1;P2;durP2;ratioP2
72053;SDS011;59918;51.280;7.950;2023-03-01T00:02:18;15.15;;;7.32;;
72053;SDS011;59918;51.280;7.950;2023-03-01T00:04:43;13.13;;;7.43;;
72053;SDS011;59918;51.280;7.950;2023-03-01T00:07:08;14.85;;;6.65;;
72053;SDS011;59918;51.280;7.950;2023-03-01T00:09:35;11.95;;;7.05;;
72053;SDS011;59918;51.280;7.950;2023-03-01T00:12:01;12.93;;;7.53;;
72053;SDS011;59918;51.280;7.950;2023-03-01T00:14:26;11.82;;;7.20;;
72053;SDS011;59918;51.280;7.950;2023-03-01T00:16:51;12.77;;;7.18;;
72053;SDS011;59918;51.280;7.950;2023-03-01T00:19:17;13.18;;;7.35;;
72053;SDS011;59918;51.280;7.950;2023-03-01T00:21:44;10.80;;;6.85;;
72053;SDS011;59918;51.280;7.950;2023-03-01T00:24:10;13.27;;;7.57;;
72053;SDS011;59918;51.280;7.950;2023-03-01T00:26:35;14.95;;;6.97;;
72053;SDS011;59918;51.280;7.950;2023-03-01T00:29:01;13.27;;;7.10;;
72053;SDS011;59918;51.280;7.950;2023-03-01T00:31:27;13.07;;;6.57;;
72053;SDS011;59918;51.280;7.950;2023-03-01T00:34:02;11.98;;;6.55;;
72053;SDS011;59918;51.280;7.950;2023-03-01T00:36:30;14.00;;;7.30;;
72053;SDS011;59918;51.280;7.950;2023-03-01T00:38:59;12.32;;;6.88;;
72053;SDS011;59918;51.280;7.950;2023-03-01T00:41:25;12.65;;;7.05;;
72053;SDS011;59918;51.280;7.950;2023-03-01T00:43:51;10.90;;;6.35;;
72053;SDS011;59918;51.280;7.950;2023-03-01T00:46:20;12.85;;;7.32;;
72053;SDS011;59918;51.280;7.950;2023-03-01T00:48:47;16.13;;;8.93;;
72053;SDS011;59918;51.280;7.950;2023-03-01T00:51:17;12.90;;;7.63;;
72053;SDS011;59918;51.280;7.950;2023-03-01T00:53:50;16.65;;;8.02;;
72053;SDS011;59918;51.280;7.950;2023-03-01T00:56:17;15.77;;;8.32;;
72053;SDS011;59918;51.280;7.950;2023-03-01T00:58:42;14.75;;;8.18;;
72053;SDS011;59918;51.280;7.950;2023-03-01T01:01:15;12.98;;;7.65;;
72053;SDS011;59918;51.280;7.950;2023-03-01T01:03:52;15.73;;;8.10;;
72053;SDS011;59918;51.280;7.950;2023-03-01T01:06:39;14.05;;;7.65;;
72053;SDS011;59918;51.280;7.950;2023-03-01T01:09:06;12.15;;;7.35;;
72053;SDS011;59918;51.280;7.950;2023-03-01T01:11:32;16.17;;;7.68;;
72053;SDS011;59918;51.280;7.950;2023-03-01T01:13:58;12.60;;;8.00;;
72053;SDS011;59918;51.280;7.950;2023-03-01T01:16:24;13.68;;;7.90;;
72053;SDS011;59918;51.280;7.950;2023-03-01T01:18:51;17.45;;;8.55;;
72053;SDS011;59918;51.280;7.950;2023-03-01T01:21:18;13.02;;;7.40;;
72053;SDS011;59918;51.280;7.950;2023-03-01T01:23:45;13.90;;;7.90;;
72053;SDS011;59918;51.280;7.950;2023-03-01T01:26:18;16.65;;;8.23;;
72053;SDS011;59918;51.280;7.950;2023-03-01T01:28:45;16.23;;;8.15;;
72053;SDS011;59918;51.280;7.950;2023-03-01T01:31:11;16.23;;;8.15;;
72053;SDS011;59918;51.280;7.950;2023-03-01T01:33:37;18.08;;;8.30;;
72053;SDS011;59918;51.280;7.950;2023-03-01T01:36:02;15.77;;;7.78;;
72053;SDS011;59918;51.280;7.950;2023-03-01T01:38:29;15.82;;;7.45;;
72053;SDS011;59918;51.280;7.950;2023-03-01T01:40:54;11.80;;;7.20;;
72053;SDS011;59918;51.280;7.950;2023-03-01T01:45:55;15.20;;;8.57;;
72053;SDS011;59918;51.280;7.950;2023-03-01T01:48:24;15.82;;;9.13;;
72053;SDS011;59918;51.280;7.950;2023-03-01T01:50:58;20.70;;;9.73;;
72053;SDS011;59918;51.280;7.950;2023-03-01T01:53:25;18.98;;;8.27;;
72053;SDS011;59918;51.280;7.950;2023-03-01T01:55:54;13.23;;;7.47;;
72053;SDS011;59918;51.280;7.950;2023-03-01T01:58:23;13.98;;;7.80;;
72053;SDS011;59918;51.280;7.950;2023-03-01T02:00:50;13.85;;;7.78;;
72053;SDS011;59918;51.280;7.950;2023-03-01T02:03:17;15.63;;;7.15;;
72053;SDS011;59918;51.280;7.950;2023-03-01T02:05:49;16.15;;;7.78;;
72053;SDS011;59918;51.280;7.950;2023-03-01T02:08:19;12.07;;;7.17;;
72053;SDS011;59918;51.280;7.950;2023-03-01T02:10:46;13.23;;;7.88;;
72053;SDS011;59918;51.280;7.950;2023-03-01T02:13:13;14.15;;;7.82;;
72053;SDS011;59918;51.280;7.950;2023-03-01T02:15:39;13.05;;;7.05;;
72053;SDS011;59918;51.280;7.950;2023-03-01T02:18:05;14.73;;;8.02;;
72053;SDS011;59918;51.280;7.950;2023-03-01T02:23:06;16.35;;;7.82;;
72053;SDS011;59918;51.280;7.950;2023-03-01T02:25:38;18.00;;;8.73;;
72053;SDS011;59918;51.280;7.950;2023-03-01T02:30:40;14.02;;;8.05;;
72053;SDS011;59918;51.280;7.950;2023-03-01T02:33:06;17.13;;;8.43;;
72053;SDS011;59918;51.280;7.950;2023-03-01T02:35:35;15.55;;;8.63;;
72053;SDS011;59918;51.280;7.950;2023-03-01T02:38:03;17.65;;;8.88;;
72053;SDS011;59918;51.280;7.950;2023-03-01T02:40:31;16.83;;;8.07;;
72053;SDS011;59918;51.280;7.950;2023-03-01T02:42:59;13.30;;;8.20;;
72053;SDS011;59918;51.280;7.950;2023-03-01T02:45:25;13.25;;;7.68;;
72053;SDS011;59918;51.280;7.950;2023-03-01T02:47:55;17.88;;;8.50;;
72053;SDS011;59918;51.280;7.950;2023-03-01T02:52:55;18.50;;;8.80;;
72053;SDS011;59918;51.280;7.950;2023-03-01T02:55:24;17.70;;;8.77;;
72053;SDS011;59918;51.280;7.950;2023-03-01T02:57:50;15.45;;;7.70;;
72053;SDS011;59918;51.280;7.950;2023-03-01T03:00:17;19.10;;;8.65;;
72053;SDS011;59918;51.280;7.950;2023-03-01T03:02:46;14.68;;;8.95;;
72053;SDS011;59918;51.280;7.950;2023-03-01T03:05:20;20.23;;;8.25;;
72053;SDS011;59918;51.280;7.950;2023-03-01T03:07:48;17.67;;;9.05;;
72053;SDS011;59918;51.280;7.950;2023-03-01T03:10:24;13.77;;;7.97;;
72053;SDS011;59918;51.280;7.950;2023-03-01T03:13:04;17.27;;;8.48;;
72053;SDS011;59918;51.280;7.950;2023-03-01T03:15:31;12.88;;;7.75;;
72053;SDS011;59918;51.280;7.950;2023-03-01T03:17:57;19.92;;;8.18;;
72053;SDS011;59918;51.280;7.950;2023-03-01T03:20:25;15.50;;;8.98;;
72053;SDS011;59918;51.280;7.950;2023-03-01T03:22:52;19.98;;;8.55;;
72053;SDS011;59918;51.280;7.950;2023-03-01T03:25:19;18.20;;;8.65;;
72053;SDS011;59918;51.280;7.950;2023-03-01T03:27:46;18.05;;;9.43;;
72053;SDS011;59918;51.280;7.950;2023-03-01T03:30:14;21.50;;;9.88;;
72053;SDS011;59918;51.280;7.950;2023-03-01T03:32:42;19.00;;;8.95;;
72053;SDS011;59918;51.280;7.950;2023-03-01T03:35:09;18.48;;;8.98;;
72053;SDS011;59918;51.280;7.950;2023-03-01T03:37:38;13.68;;;8.10;;
72053;SDS011;59918;51.280;7.950;2023-03-01T03:40:04;16.83;;;8.90;;
72053;SDS011;59918;51.280;7.950;2023-03-01T03:42:30;17.05;;;8.75;;
72053;SDS011;59918;51.280;7.950;2023-03-01T03:44:55;20.92;;;9.05;;
72053;SDS011;59918;51.280;7.950;2023-03-01T03:47:20;22.30;;;9.27;;
72053;SDS011;59918;51.280;7.950;2023-03-01T03:49:46;18.77;;;8.93;;
72053;SDS011;59918;51.280;7.950;2023-03-01T03:52:11;17.77;;;9.18;;
72053;SDS011;59918;51.280;7.950;2023-03-01T03:54:36;17.20;;;8.80;;
72053;SDS011;59918;51.280;7.950;2023-03-01T03:57:01;19.38;;;9.02;;
72053;SDS011;59918;51.280;7.950;2023-03-01T03:59:27;17.48;;;9.43;;
72053;SDS011;59918;51.280;7.950;2023-03-01T04:01:54;18.02;;;9.55;;
72053;SDS011;59918;51.280;7.950;2023-03-01T04:04:19;17.85;;;9.25;;
72053;SDS011;59918;51.280;7.950;2023-03-01T04:06:45;20.92;;;9.30;;
72053;SDS011;59918;51.280;7.950;2023-03-01T04:09:10;19.70;;;9.45;;
72053;SDS011;59918;51.280;7.950;2023-03-01T04:11:35;15.68;;;8.35;;
72053;SDS011;59918;51.280;7.950;2023-03-01T04:14:00;19.35;;;9.10;;
72053;SDS011;59918;51.280;7.950;2023-03-01T04:16:26;16.83;;;9.30;;
72053;SDS011;59918;51.280;7.950;2023-03-01T04:18:51;22.27;;;10.38;;
72053;SDS011;59918;51.280;7.950;2023-03-01T04:21:16;15.60;;;8.50;;
72053;SDS011;59918;51.280;7.950;2023-03-01T04:23:42;21.38;;;9.90;;
72053;SDS011;59918;51.280;7.950;2023-03-01T04:26:07;21.35;;;9.82;;
72053;SDS011;59918;51.280;7.950;2023-03-01T04:28:34;23.27;;;10.30;;
72053;SDS011;59918;51.280;7.950;2023-03-01T04:31:19;23.65;;;9.85;;
72053;SDS011;59918;51.280;7.950;2023-03-01T04:36:11;18.65;;;9.80;;
72053;SDS011;59918;51.280;7.950;2023-03-01T04:38:38;22.63;;;10.25;;
72053;SDS011;59918;51.280;7.950;2023-03-01T04:41:05;18.00;;;9.52;;
72053;SDS011;59918;51.280;7.950;2023-03-01T04:43:31;18.08;;;10.13;;
72053;SDS011;59918;51.280;7.950;2023-03-01T04:46:00;19.20;;;9.98;;
72053;SDS011;59918;51.280;7.950;2023-03-01T04:48:30;25.27;;;10.77;;
72053;SDS011;59918;51.280;7.950;2023-03-01T04:50:56;20.95;;;9.98;;
72053;SDS011;59918;51.280;7.950;2023-03-01T04:53:39;19.67;;;9.93;;
72053;SDS011;59918;51.280;7.950;2023-03-01T05:02:04;21.15;;;11.00;;
72053;SDS011;59918;51.280;7.950;2023-03-01T05:04:30;18.67;;;9.07;;
72053;SDS011;59918;51.280;7.950;2023-03-01T05:06:55;22.17;;;10.48;;
72053;SDS011;59918;51.280;7.950;2023-03-01T05:09:20;20.83;;;9.82;;
72053;SDS011;59918;51.280;7.950;2023-03-01T05:11:46;21.55;;;9.55;;
72053;SDS011;59918;51.280;7.950;2023-03-01T05:14:11;25.63;;;10.50;;
72053;SDS011;59918;51.280;7.950;2023-03-01T05:16:36;20.48;;;10.20;;
72053;SDS011;59918;51.280;7.950;2023-03-01T05:19:02;24.27;;;11.27;;
72053;SDS011;59918;51.280;7.950;2023-03-01T05:21:28;30.20;;;12.75;;
72053;SDS011;59918;51.280;7.950;2023-03-01T05:23:53;20.17;;;11.00;;
72053;SDS011;59918;51.280;7.950;2023-03-01T05:26:19;25.75;;;11.10;;
72053;SDS011;59918;51.280;7.950;2023-03-01T05:28:45;20.73;;;10.85;;
72053;SDS011;59918;51.280;7.950;2023-03-01T05:31:10;25.15;;;11.50;;
72053;SDS011;59918;51.280;7.950;2023-03-01T05:33:39;25.55;;;10.77;;
72053;SDS011;59918;51.280;7.950;2023-03-01T05:36:06;21.65;;;11.18;;
72053;SDS011;59918;51.280;7.950;2023-03-01T05:38:32;24.02;;;10.30;;
72053;SDS011;59918;51.280;7.950;2023-03-01T05:40:58;22.25;;;10.88;;
72053;SDS011;59918;51.280;7.950;2023-03-01T05:43:26;15.77;;;9.02;;
72053;SDS011;59918;51.280;7.950;2023-03-01T05:45:55;22.58;;;11.13;;
72053;SDS011;59918;51.280;7.950;2023-03-01T05:48:22;19.33;;;9.52;;
72053;SDS011;59918;51.280;7.950;2023-03-01T05:50:47;20.10;;;10.00;;
72053;SDS011;59918;51.280;7.950;2023-03-01T05:53:16;27.40;;;11.65;;
72053;SDS011;59918;51.280;7.950;2023-03-01T05:55:44;23.55;;;11.00;;
72053;SDS011;59918;51.280;7.950;2023-03-01T05:58:13;23.60;;;10.93;;
72053;SDS011;59918;51.280;7.950;2023-03-01T06:00:40;21.80;;;10.53;;
72053;SDS011;59918;51.280;7.950;2023-03-01T06:03:06;20.60;;;10.40;;
72053;SDS011;59918;51.280;7.950;2023-03-01T06:05:34;23.33;;;11.18;;
72053;SDS011;59918;51.280;7.950;2023-03-01T06:08:00;24.98;;;10.52;;
72053;SDS011;59918;51.280;7.950;2023-03-01T06:10:25;21.98;;;10.70;;
72053;SDS011;59918;51.280;7.950;2023-03-01T06:12:51;27.60;;;11.95;;
72053;SDS011;59918;51.280;7.950;2023-03-01T06:15:16;26.30;;;11.13;;
72053;SDS011;59918;51.280;7.950;2023-03-01T06:17:43;22.90;;;11.00;;
72053;SDS011;59918;51.280;7.950;2023-03-01T06:20:11;23.40;;;10.63;;
72053;SDS011;59918;51.280;7.950;2023-03-01T06:22:41;24.00;;;11.50;;
72053;SDS011;59918;51.280;7.950;2023-03-01T06:25:07;26.08;;;10.90;;
72053;SDS011;59918;51.280;7.950;2023-03-01T06:27:33;23.50;;;10.30;;
72053;SDS011;59918;51.280;7.950;2023-03-01T06:29:59;28.85;;;10.32;;
72053;SDS011;59918;51.280;7.950;2023-03-01T06:32:24;29.17;;;11.30;;
72053;SDS011;59918;51.280;7.950;2023-03-01T06:34:49;25.33;;;9.68;;
72053;SDS011;59918;51.280;7.950;2023-03-01T06:37:15;22.33;;;11.15;;
72053;SDS011;59918;51.280;7.950;2023-03-01T06:39:40;22.83;;;10.45;;
72053;SDS011;59918;51.280;7.950;2023-03-01T06:42:06;25.52;;;11.07;;
72053;SDS011;59918;51.280;7.950;2023-03-01T06:44:35;22.42;;;11.07;;
72053;SDS011;59918;51.280;7.950;2023-03-01T06:47:00;21.42;;;10.55;;
72053;SDS011;59918;51.280;7.950;2023-03-01T06:49:26;23.05;;;11.02;;
72053;SDS011;59918;51.280;7.950;2023-03-01T06:51:51;23.98;;;11.38;;
72053;SDS011;59918;51.280;7.950;2023-03-01T06:54:16;24.35;;;11.93;;
72053;SDS011;59918;51.280;7.950;2023-03-01T06:56:41;22.08;;;10.82;;
72053;SDS011;59918;51.280;7.950;2023-03-01T06:59:07;22.38;;;10.57;;
72053;SDS011;59918;51.280;7.950;2023-03-01T07:01:32;20.80;;;9.55;;
72053;SDS011;59918;51.280;7.950;2023-03-01T07:03:57;26.02;;;11.07;;
72053;SDS011;59918;51.280;7.950;2023-03-01T07:06:23;28.55;;;11.00;;
72053;SDS011;59918;51.280;7.950;2023-03-01T07:08:48;22.55;;;11.48;;
72053;SDS011;59918;51.280;7.950;2023-03-01T07:11:14;22.20;;;11.05;;
72053;SDS011;59918;51.280;7.950;2023-03-01T07:13:39;24.08;;;10.48;;
72053;SDS011;59918;51.280;7.950;2023-03-01T07:16:05;20.48;;;11.30;;
72053;SDS011;59918;51.280;7.950;2023-03-01T07:18:30;19.58;;;9.98;;
72053;SDS011;59918;51.280;7.950;2023-03-01T07:20:56;26.20;;;11.63;;
72053;SDS011;59918;51.280;7.950;2023-03-01T07:23:21;26.92;;;12.13;;
72053;SDS011;59918;51.280;7.950;2023-03-01T07:25:53;22.95;;;10.85;;
72053;SDS011;59918;51.280;7.950;2023-03-01T07:28:18;27.90;;;11.45;;
72053;SDS011;59918;51.280;7.950;2023-03-01T07:30:44;25.23;;;11.45;;
72053;SDS011;59918;51.280;7.950;2023-03-01T07:33:09;25.58;;;11.50;;
72053;SDS011;59918;51.280;7.950;2023-03-01T07:35:34;28.30;;;12.38;;
72053;SDS011;59918;51.280;7.950;2023-03-01T07:37:59;27.10;;;13.57;;
72053;SDS011;59918;51.280;7.950;2023-03-01T07:40:25;25.95;;;12.85;;
72053;SDS011;59918;51.280;7.950;2023-03-01T07:42:54;29.40;;;13.48;;
72053;SDS011;59918;51.280;7.950;2023-03-01T07:45:21;30.13;;;13.38;;
72053;SDS011;59918;51.280;7.950;2023-03-01T07:47:46;24.67;;;13.38;;
72053;SDS011;59918;51.280;7.950;2023-03-01T07:50:11;27.40;;;12.23;;
72053;SDS011;59918;51.280;7.950;2023-03-01T07:52:36;22.95;;;11.48;;
72053;SDS011;59918;51.280;7.950;2023-03-01T07:55:02;29.08;;;14.25;;
72053;SDS011;59918;51.280;7.950;2023-03-01T07:57:27;23.83;;;12.15;;
72053;SDS011;59918;51.280;7.950;2023-03-01T07:59:52;31.95;;;15.35;;
72053;SDS011;59918;51.280;7.950;2023-03-01T08:02:17;28.95;;;15.23;;
72053;SDS011;59918;51.280;7.950;2023-03-01T08:04:43;24.33;;;13.95;;
72053;SDS011;59918;51.280;7.950;2023-03-01T08:07:08;26.67;;;13.75;;
72053;SDS011;59918;51.280;7.950;2023-03-01T08:09:36;23.75;;;12.30;;
72053;SDS011;59918;51.280;7.950;2023-03-01T08:12:02;27.75;;;12.63;;
72053;SDS011;59918;51.280;7.950;2023-03-01T08:14:27;18.30;;;11.85;;
72053;SDS011;59918;51.280;7.950;2023-03-01T08:16:52;20.05;;;11.00;;
72053;SDS011;59918;51.280;7.950;2023-03-01T08:19:18;29.42;;;13.35;;
72053;SDS011;59918;51.280;7.950;2023-03-01T08:21:43;20.90;;;12.55;;
72053;SDS011;59918;51.280;7.950;2023-03-01T08:24:08;25.48;;;15.10;;
72053;SDS011;59918;51.280;7.950;2023-03-01T08:26:33;18.35;;;11.52;;
72053;SDS011;59918;51.280;7.950;2023-03-01T08:28:59;25.02;;;13.57;;
72053;SDS011;59918;51.280;7.950;2023-03-01T08:31:26;31.95;;;18.40;;
72053;SDS011;59918;51.280;7.950;2023-03-01T08:33:54;30.33;;;14.40;;
72053;SDS011;59918;51.280;7.950;2023-03-01T08:36:25;28.73;;;14.40;;
72053;SDS011;59918;51.280;7.950;2023-03-01T08:38:52;23.95;;;13.95;;
72053;SDS011;59918;51.280;7.950;2023-03-01T08:41:17;25.35;;;13.50;;
72053;SDS011;59918;51.280;7.950;2023-03-01T08:43:43;28.73;;;14.27;;
72053;SDS011;59918;51.280;7.950;2023-03-01T08:46:08;23.15;;;14.35;;
72053;SDS011;59918;51.280;7.950;2023-03-01T08:48:33;20.00;;;13.55;;
72053;SDS011;59918;51.280;7.950;2023-03-01T08:51:09;25.60;;;14.20;;
72053;SDS011;59918;51.280;7.950;2023-03-01T08:53:39;26.23;;;13.13;;
72053;SDS011;59918;51.280;7.950;2023-03-01T08:56:05;23.98;;;13.57;;
72053;SDS011;59918;51.280;7.950;2023-03-01T08:58:31;26.88;;;13.85;;
72053;SDS011;59918;51.280;7.950;2023-03-01T09:00:56;20.13;;;12.55;;
72053;SDS011;59918;51.280;7.950;2023-03-01T09:03:22;17.75;;;11.80;;
72053;SDS011;59918;51.280;7.950;2023-03-01T09:05:48;24.70;;;11.43;;
72053;SDS011;59918;51.280;7.950;2023-03-01T09:08:13;16.20;;;10.57;;
72053;SDS011;59918;51.280;7.950;2023-03-01T09:10:38;18.52;;;12.07;;
72053;SDS011;59918;51.280;7.950;2023-03-01T09:13:03;17.70;;;11.93;;
72053;SDS011;59918;51.280;7.950;2023-03-01T09:15:29;17.35;;;10.38;;
72053;SDS011;59918;51.280;7.950;2023-03-01T09:17:54;15.52;;;10.30;;
72053;SDS011;59918;51.280;7.950;2023-03-01T09:20:19;19.88;;;9.25;;
72053;SDS011;59918;51.280;7.950;2023-03-01T09:22:44;12.32;;;8.70;;
72053;SDS011;59918;51.280;7.950;2023-03-01T09:25:10;15.18;;;10.00;;
72053;SDS011;59918;51.280;7.950;2023-03-01T09:27:35;13.57;;;9.35;;
72053;SDS011;59918;51.280;7.950;2023-03-01T09:30:00;14.50;;;8.63;;
72053;SDS011;59918;51.280;7.950;2023-03-01T09:32:26;11.93;;;8.02;;
72053;SDS011;59918;51.280;7.950;2023-03-01T09:34:51;12.05;;;8.63;;
72053;SDS011;59918;51.280;7.950;2023-03-01T09:37:19;14.50;;;8.70;;
72053;SDS011;59918;51.280;7.950;2023-03-01T09:39:44;13.40;;;8.93;;
72053;SDS011;59918;51.280;7.950;2023-03-01T09:42:10;12.30;;;7.97;;
72053;SDS011;59918;51.280;7.950;2023-03-01T09:44:43;12.63;;;8.02;;
72053;SDS011;59918;51.280;7.950;2023-03-01T09:47:23;12.15;;;8.20;;
72053;SDS011;59918;51.280;7.950;2023-03-01T09:52:30;15.63;;;9.45;;
72053;SDS011;59918;51.280;7.950;2023-03-01T09:55:01;14.18;;;8.60;;
72053;SDS011;59918;51.280;7.950;2023-03-01T09:57:36;11.25;;;8.50;;
72053;SDS011;59918;51.280;7.950;2023-03-01T10:03:00;8.95;;;7.53;;
72053;SDS011;59918;51.280;7.950;2023-03-01T10:11:21;11.25;;;7.63;;
72053;SDS011;59918;51.280;7.950;2023-03-01T10:16:57;12.73;;;7.85;;
72053;SDS011;59918;51.280;7.950;2023-03-01T10:19:44;9.73;;;7.88;;
72053;SDS011;59918;51.280;7.950;2023-03-01T10:22:21;15.52;;;8.10;;
72053;SDS011;59918;51.280;7.950;2023-03-01T10:24:49;12.60;;;8.40;;
72053;SDS011;59918;51.280;7.950;2023-03-01T10:29:56;11.90;;;8.27;;
72053;SDS011;59918;51.280;7.950;2023-03-01T10:32:29;13.73;;;7.95;;
72053;SDS011;59918;51.280;7.950;2023-03-01T10:34:55;10.93;;;7.32;;
72053;SDS011;59918;51.280;7.950;2023-03-01T10:37:21;10.10;;;7.47;;
72053;SDS011;59918;51.280;7.950;2023-03-01T10:42:33;12.85;;;7.55;;
72053;SDS011;59918;51.280;7.950;2023-03-01T10:45:14;12.55;;;7.97;;
72053;SDS011;59918;51.280;7.950;2023-03-01T10:50:40;8.68;;;7.15;;
72053;SDS011;59918;51.280;7.950;2023-03-01T11:01:25;9.70;;;7.07;;
72053;SDS011;59918;51.280;7.950;2023-03-01T11:06:32;11.20;;;8.52;;
72053;SDS011;59918;51.280;7.950;2023-03-01T11:09:13;19.90;;;12.40;;
72053;SDS011;59918;51.280;7.950;2023-03-01T11:11:38;16.85;;;11.38;;
72053;SDS011;59918;51.280;7.950;2023-03-01T11:14:15;17.70;;;11.38;;
72053;SDS011;59918;51.280;7.950;2023-03-01T11:16:43;10.00;;;6.80;;
72053;SDS011;59918;51.280;7.950;2023-03-01T11:24:29;7.85;;;6.28;;
72053;SDS011;59918;51.280;7.950;2023-03-01T11:27:00;8.88;;;6.80;;
72053;SDS011;59918;51.280;7.950;2023-03-01T11:29:33;9.48;;;7.55;;
72053;SDS011;59918;51.280;7.950;2023-03-01T11:32:01;10.40;;;7.20;;
72053;SDS011;59918;51.280;7.950;2023-03-01T11:35:17;8.25;;;6.70;;
72053;SDS011;59918;51.280;7.950;2023-03-01T11:42:43;10.50;;;7.18;;
72053;SDS011;59918;51.280;7.950;2023-03-01T11:45:11;10.35;;;6.95;;
72053;SDS011;59918;51.280;7.950;2023-03-01T11:53:03;10.13;;;6.35;;
72053;SDS011;59918;51.280;7.950;2023-03-01T12:28:52;5.97;;;5.38;;
72053;SDS011;59918;51.280;7.950;2023-03-01T12:34:48;10.27;;;5.95;;
72053;SDS011;59918;51.280;7.950;2023-03-01T12:47:51;6.32;;;5.65;;
72053;SDS011;59918;51.280;7.950;2023-03-01T12:50:23;6.97;;;6.38;;
72053;SDS011;59918;51.280;7.950;2023-03-01T12:52:55;6.53;;;5.90;;
72053;SDS011;59918;51.280;7.950;2023-03-01T12:55:26;8.07;;;6.10;;
72053;SDS011;59918;51.280;7.950;2023-03-01T13:00:46;5.93;;;5.40;;
72053;SDS011;59918;51.280;7.950;2023-03-01T13:06:11;12.15;;;6.40;;
72053;SDS011;59918;51.280;7.950;2023-03-01T13:09:00;6.15;;;5.55;;
72053;SDS011;59918;51.280;7.950;2023-03-01T13:11:28;9.68;;;5.97;;
72053;SDS011;59918;51.280;7.950;2023-03-01T13:14:44;7.15;;;5.75;;
72053;SDS011;59918;51.280;7.950;2023-03-01T13:16:45;6.33;;;5.30;;
72053;SDS011;59918;51.280;7.950;2023-03-01T13:19:21;7.45;;;6.05;;
72053;SDS011;59918;51.280;7.950;2023-03-01T13:21:49;9.55;;;5.63;;
72053;SDS011;59918;51.280;7.950;2023-03-01T13:29:43;6.30;;;5.80;;
72053;SDS011;59918;51.280;7.950;2023-03-01T13:34:52;7.07;;;5.60;;
72053;SDS011;59918;51.280;7.950;2023-03-01T13:37:26;6.00;;;5.38;;
72053;SDS011;59918;51.280;7.950;2023-03-01T13:39:52;6.65;;;5.57;;
72053;SDS011;59918;51.280;7.950;2023-03-01T13:42:34;6.80;;;6.20;;
72053;SDS011;59918;51.280;7.950;2023-03-01T13:51:07;5.45;;;5.05;;
72053;SDS011;59918;51.280;7.950;2023-03-01T13:53:35;6.20;;;4.97;;
72053;SDS011;59918;51.280;7.950;2023-03-01T13:56:09;5.93;;;5.43;;
72053;SDS011;59918;51.280;7.950;2023-03-01T13:59:12;6.28;;;5.78;;
72053;SDS011;59918;51.280;7.950;2023-03-01T14:01:34;5.93;;;5.32;;
72053;SDS011;59918;51.280;7.950;2023-03-01T14:04:02;6.63;;;5.93;;
72053;SDS011;59918;51.280;7.950;2023-03-01T14:06:29;6.00;;;5.50;;
72053;SDS011;59918;51.280;7.950;2023-03-01T14:14:46;6.22;;;5.63;;
72053;SDS011;59918;51.280;7.950;2023-03-01T14:19:42;5.80;;;5.22;;
72053;SDS011;59918;51.280;7.950;2023-03-01T14:27:19;5.72;;;5.22;;
72053;SDS011;59918;51.280;7.950;2023-03-01T14:29:56;5.72;;;5.22;;
72053;SDS011;59918;51.280;7.950;2023-03-01T14:32:28;5.90;;;5.25;;
72053;SDS011;59918;51.280;7.950;2023-03-01T14:34:56;5.68;;;5.18;;
72053;SDS011;59918;51.280;7.950;2023-03-01T14:37:25;5.82;;;5.32;;
72053;SDS011;59918;51.280;7.950;2023-03-01T14:39:52;5.43;;;4.70;;
72053;SDS011;59918;51.280;7.950;2023-03-01T14:42:18;5.68;;;4.97;;
72053;SDS011;59918;51.280;7.950;2023-03-01T14:44:46;5.57;;;4.80;;
72053;SDS011;59918;51.280;7.950;2023-03-01T14:47:15;6.00;;;4.70;;
72053;SDS011;59918;51.280;7.950;2023-03-01T14:49:44;5.22;;;4.72;;
72053;SDS011;59918;51.280;7.950;2023-03-01T14:52:22;5.45;;;4.95;;
72053;SDS011;59918;51.280;7.950;2023-03-01T14:54:53;5.35;;;4.85;;
72053;SDS011;59918;51.280;7.950;2023-03-01T14:57:22;5.22;;;4.75;;
72053;SDS011;59918;51.280;7.950;2023-03-01T14:59:53;5.15;;;4.75;;
72053;SDS011;59918;51.280;7.950;2023-03-01T15:02:21;5.40;;;5.00;;
72053;SDS011;59918;51.280;7.950;2023-03-01T15:04:52;5.57;;;5.07;;
72053;SDS011;59918;51.280;7.950;2023-03-01T15:07:20;4.97;;;4.57;;
72053;SDS011;59918;51.280;7.950;2023-03-01T15:09:55;4.95;;;4.55;;
72053;SDS011;59918;51.280;7.950;2023-03-01T15:12:40;4.97;;;4.63;;
72053;SDS011;59918;51.280;7.950;2023-03-01T15:17:51;6.07;;;5.50;;
72053;SDS011;59918;51.280;7.950;2023-03-01T15:20:18;5.10;;;4.70;;
72053;SDS011;59918;51.280;7.950;2023-03-01T15:22:44;6.82;;;5.22;;
72053;SDS011;59918;51.280;7.950;2023-03-01T15:25:17;5.25;;;4.75;;
72053;SDS011;59918;51.280;7.950;2023-03-01T15:27:47;5.22;;;4.72;;
72053;SDS011;59918;51.280;7.950;2023-03-01T15:30:23;5.22;;;4.82;;
72053;SDS011;59918;51.280;7.950;2023-03-01T15:35:53;5.30;;;4.80;;
72053;SDS011;59918;51.280;7.950;2023-03-01T15:38:30;5.68;;;5.18;;
72053;SDS011;59918;51.280;7.950;2023-03-01T15:40:56;5.45;;;4.95;;
72053;SDS011;59918;51.280;7.950;2023-03-01T15:43:36;5.40;;;4.82;;
72053;SDS011;59918;51.280;7.950;2023-03-01T15:46:23;5.05;;;4.65;;
72053;SDS011;59918;51.280;7.950;2023-03-01T15:48:50;5.47;;;4.90;;
72053;SDS011;59918;51.280;7.950;2023-03-01T15:51:19;5.13;;;4.50;;
72053;SDS011;59918;51.280;7.950;2023-03-01T15:53:50;5.13;;;4.65;;
72053;SDS011;59918;51.280;7.950;2023-03-01T15:56:17;5.05;;;4.55;;
72053;SDS011;59918;51.280;7.950;2023-03-01T15:58:42;5.20;;;4.70;;
72053;SDS011;59918;51.280;7.950;2023-03-01T16:01:11;6.40;;;5.13;;
72053;SDS011;59918;51.280;7.950;2023-03-01T16:03:39;5.35;;;4.85;;
72053;SDS011;59918;51.280;7.950;2023-03-01T16:06:04;4.78;;;4.38;;
72053;SDS011;59918;51.280;7.950;2023-03-01T16:08:29;6.93;;;4.90;;
72053;SDS011;59918;51.280;7.950;2023-03-01T16:10:55;5.30;;;4.80;;
72053;SDS011;59918;51.280;7.950;2023-03-01T16:13:20;4.70;;;4.30;;
72053;SDS011;59918;51.280;7.950;2023-03-01T16:15:45;4.78;;;4.30;;
72053;SDS011;59918;51.280;7.950;2023-03-01T16:18:10;5.57;;;4.95;;
72053;SDS011;59918;51.280;7.950;2023-03-01T16:20:36;6.22;;;4.03;;
72053;SDS011;59918;51.280;7.950;2023-03-01T16:23:03;6.10;;;5.20;;
72053;SDS011;59918;51.280;7.950;2023-03-01T16:25:31;8.55;;;4.50;;
72053;SDS011;59918;51.280;7.950;2023-03-01T16:27:57;5.40;;;4.30;;
72053;SDS011;59918;51.280;7.950;2023-03-01T16:30:23;4.68;;;4.28;;
72053;SDS011;59918;51.280;7.950;2023-03-01T16:32:48;5.13;;;4.28;;
72053;SDS011;59918;51.280;7.950;2023-03-01T16:35:15;4.75;;;4.28;;
72053;SDS011;59918;51.280;7.950;2023-03-01T16:37:42;4.28;;;3.80;;
72053;SDS011;59918;51.280;7.950;2023-03-01T16:40:18;5.65;;;4.07;;
72053;SDS011;59918;51.280;7.950;2023-03-01T16:42:51;6.10;;;4.55;;
72053;SDS011;59918;51.280;7.950;2023-03-01T16:45:17;4.68;;;4.25;;
72053;SDS011;59918;51.280;7.950;2023-03-01T16:47:42;4.82;;;4.00;;
72053;SDS011;59918;51.280;7.950;2023-03-01T16:50:08;4.60;;;3.72;;
72053;SDS011;59918;51.280;7.950;2023-03-01T16:52:34;7.45;;;5.00;;
72053;SDS011;59918;51.280;7.950;2023-03-01T16:54:59;10.18;;;4.30;;
72053;SDS011;59918;51.280;7.950;2023-03-01T16:57:25;6.35;;;4.18;;
72053;SDS011;59918;51.280;7.950;2023-03-01T16:59:53;8.43;;;4.40;;
72053;SDS011;59918;51.280;7.950;2023-03-01T17:02:18;5.53;;;4.93;;
72053;SDS011;59918;51.280;7.950;2023-03-01T17:04:44;6.05;;;4.70;;
72053;SDS011;59918;51.280;7.950;2023-03-01T17:07:09;8.32;;;5.38;;
72053;SDS011;59918;51.280;7.950;2023-03-01T17:09:37;5.30;;;4.78;;
72053;SDS011;59918;51.280;7.950;2023-03-01T17:12:03;8.57;;;5.03;;
72053;SDS011;59918;51.280;7.950;2023-03-01T17:14:29;8.35;;;5.88;;